Time;durP1;ratioP1;P1;durP2;ratioP2;P2;SDS_P1;SDS_P2;PMS_P1;PMS_P2;Temp;Humidity;BMP_temperature;BMP_pressure;BME280_temperature;BME280_humidity;BME280_pressure;Samples;Min_cycle;Max_cycle;Signal;HPM_P1;HPM_P2
2022/01/24 00:02:18;;;;;;;48.60;17.17;;;;;;;-5.92;98.95;101479.38;4945489;28;20081;-66
2022/01/24 00:04:44;;;;;;;38.65;13.82;;;;;;;-6.08;98.08;101467.97;4976310;28;20077;-68
2022/01/24 00:07:10;;;;;;;39.45;15.02;;;;;;;-6.11;97.10;101474.09;4976543;28;20152;-66
2022/01/24 00:09:38;;;;;;;48.42;19.48;;;;;;;-6.30;97.01;101451.31;4992966;28;20065;-65
2022/01/24 00:12:16;;;;;;;35.85;12.10;;;;;;;-6.25;96.62;101474.97;4960504;28;20048;-66
2022/01/24 00:17:49;;;;;;;41.00;13.90;;;;;;;-6.35;97.41;101484.66;4997520;28;20045;-66
2022/01/24 00:28:20;;;;;;;41.58;15.60;;;;;;;-6.41;97.34;101497.78;5012894;28;20046;-65
2022/01/24 00:30:47;;;;;;;45.55;15.30;;;;;;;-6.36;97.51;101496.94;4996066;28;20125;-65
2022/01/24 00:33:14;;;;;;;41.10;14.52;;;;;;;-6.33;97.60;101493.41;5012377;28;20156;-67
2022/01/24 00:35:41;;;;;;;45.83;16.23;;;;;;;-6.36;98.02;101482.88;5012255;28;20433;-66
2022/01/24 00:38:07;;;;;;;39.45;14.18;;;;;;;-6.27;97.82;101492.53;4979475;28;20045;-65
2022/01/24 00:40:36;;;;;;;40.40;15.60;;;;;;;-6.21;97.23;101482.03;4979744;28;20061;-64
2022/01/24 00:43:06;;;;;;;39.67;13.93;;;;;;;-6.24;97.30;101485.53;5012294;28;20046;-66
2022/01/24 00:45:55;;;;;;;42.03;15.57;;;;;;;-6.26;97.30;101486.38;4979583;28;20053;-66
2022/01/24 00:49:09;;;;;;;42.70;14.63;;;;;;;-6.29;97.25;101484.63;4982519;28;20058;-66
2022/01/24 00:56:53;;;;;;;42.55;14.70;;;;;;;-6.18;96.89;101480.28;4997746;28;20041;-65
2022/01/24 00:59:19;;;;;;;38.45;13.98;;;;;;;-6.27;96.37;101482.88;4995679;28;20108;-66
2022/01/24 01:01:45;;;;;;;40.38;14.25;;;;;;;-6.34;96.78;101481.13;4995760;28;20048;-65
2022/01/24 01:04:11;;;;;;;40.92;14.38;;;;;;;-6.27;96.52;101498.69;5011692;28;20116;-67
2022/01/24 01:06:40;;;;;;;34.90;12.45;;;;;;;-6.23;97.44;101495.16;4979161;28;20074;-65
2022/01/24 01:20:04;;;;;;;36.83;12.82;;;;;;;-6.26;96.88;101502.19;4998049;28;20088;-66
2022/01/24 01:22:30;;;;;;;42.75;14.70;;;;;;;-6.23;98.13;101503.06;4979913;28;20421;-64
2022/01/24 01:24:56;;;;;;;40.25;15.02;;;;;;;-6.28;98.17;101490.78;4995583;28;20046;-65
2022/01/24 01:27:28;;;;;;;38.25;15.57;;;;;;;-6.36;99.31;101472.34;4979333;28;20050;-66
2022/01/24 01:30:02;;;;;;;49.45;17.50;;;;;;;-6.17;99.44;101505.69;4995678;28;20046;-65
2022/01/24 01:54:31;;;;;;;47.85;17.02;;;;;;;-6.00;98.70;101517.97;5000429;28;20083;-66
2022/01/24 01:56:57;;;;;;;46.28;16.88;;;;;;;-6.06;98.66;101503.06;4997463;28;20076;-67
2022/01/24 01:59:23;;;;;;;51.25;17.55;;;;;;;-6.03;98.45;101520.59;4997270;28;20050;-64
2022/01/24 02:01:49;;;;;;;49.75;17.17;;;;;;;-6.05;98.49;101525.88;4978799;28;20057;-66
2022/01/24 02:04:15;;;;;;;44.63;16.35;;;;;;;-6.07;98.37;101525.88;4979197;28;20172;-64
2022/01/24 02:06:43;;;;;;;43.25;15.45;;;;;;;-6.30;98.08;101493.41;4979445;28;20385;-66
2022/01/24 02:09:10;;;;;;;48.38;17.92;;;;;;;-6.10;98.17;101532.91;4995222;28;20049;-65
2022/01/24 02:11:37;;;;;;;50.45;18.48;;;;;;;-6.17;98.35;101525.88;4995123;28;20057;-65
2022/01/24 02:14:15;;;;;;;58.75;20.77;;;;;;;-6.14;98.11;101532.03;4994324;28;20053;-64
2022/01/24 02:19:17;;;;;;;55.50;20.83;;;;;;;-6.21;98.36;101529.41;4993812;28;20075;-65
2022/01/24 02:22:04;;;;;;;45.53;17.42;;;;;;;-6.25;98.27;101527.59;4995451;28;20480;-66
2022/01/24 02:24:41;;;;;;;55.42;19.55;;;;;;;-6.32;98.87;101532.88;4980427;28;20527;-66
2022/01/24 02:27:08;;;;;;;57.38;17.30;;;;;;;-6.30;99.18;101535.50;4978831;28;20046;-66
2022/01/24 02:30:05;;;;;;;53.13;18.08;;;;;;;-6.35;98.86;101527.63;5010406;28;20450;-67
2022/01/24 02:32:31;;;;;;;50.78;17.48;;;;;;;-6.35;98.78;101521.47;4970135;28;20076;-66
2022/01/24 02:34:57;;;;;;;47.95;17.70;;;;;;;-6.35;98.86;101511.84;5011360;28;20150;-66
2022/01/24 02:37:23;;;;;;;47.85;17.27;;;;;;;-6.41;99.17;101510.94;4993088;28;20058;-65
2022/01/24 02:48:26;;;;;;;51.10;17.67;;;;;;;-6.43;99.56;101521.47;4996000;28;20049;-66
2022/01/24 02:53:38;;;;;;;44.33;15.75;;;;;;;-6.45;99.21;101530.25;4995952;28;20096;-66
2022/01/24 02:56:05;;;;;;;47.20;16.05;;;;;;;-6.49;99.68;101525.84;4994364;28;20073;-66
2022/01/24 02:58:31;;;;;;;42.78;15.50;;;;;;;-6.56;99.37;101523.19;4993019;28;20053;-66
2022/01/24 03:00:57;;;;;;;53.47;17.65;;;;;;;-6.61;100.00;101524.97;4976964;28;20617;-67
2022/01/24 03:03:23;;;;;;;48.63;18.02;;;;;;;-6.71;100.00;101514.41;4977277;28;20148;-64
2022/01/24 03:05:50;;;;;;;42.33;15.73;;;;;;;-6.83;100.00;101518.78;4977025;28;20049;-66
2022/01/24 03:08:16;;;;;;;45.72;16.67;;;;;;;-6.80;100.00;101513.53;4961131;28;20053;-65
2022/01/24 03:10:45;;;;;;;46.33;16.48;;;;;;;-6.86;100.00;101507.38;4993158;28;20048;-65
2022/01/24 03:15:54;;;;;;;47.85;15.63;;;;;;;-7.17;100.00;101491.47;4993229;28;20452;-66
2022/01/24 03:18:20;;;;;;;47.90;15.98;;;;;;;-7.13;100.00;101518.66;4993085;28;20049;-65
2022/01/24 03:20:46;;;;;;;44.95;17.73;;;;;;;-7.22;100.00;101519.50;4993737;28;20042;-66
2022/01/24 03:23:14;;;;;;;46.33;16.80;;;;;;;-7.24;100.00;101515.97;4992974;28;20429;-66
2022/01/24 03:25:40;;;;;;;47.53;16.50;;;;;;;-7.25;100.00;101519.50;5009460;28;20046;-66
2022/01/24 03:28:06;;;;;;;46.83;17.10;;;;;;;-7.26;100.00;101523.00;4993203;28;20046;-64
2022/01/24 03:30:33;;;;;;;46.95;16.45;;;;;;;-7.27;100.00;101523.88;5010427;28;20133;-66
2022/01/24 03:33:00;;;;;;;48.13;17.10;;;;;;;-7.25;100.00;101516.84;5009914;28;20057;-63
2022/01/24 03:35:26;;;;;;;41.88;15.93;;;;;;;-7.25;100.00;101519.50;4993544;28;20126;-65
2022/01/24 03:37:52;;;;;;;51.03;18.55;;;;;;;-7.30;100.00;101506.34;4994099;28;20140;-66
2022/01/24 03:40:19;;;;;;;45.47;16.52;;;;;;;-7.31;100.00;101519.47;4994642;28;20046;-65
2022/01/24 03:42:45;;;;;;;49.58;18.35;;;;;;;-7.36;100.00;101511.56;4961315;28;20199;-66
2022/01/24 03:45:12;;;;;;;40.22;15.20;;;;;;;-7.34;100.00;101508.97;4977052;28;20053;-65
2022/01/24 03:50:19;;;;;;;47.65;17.05;;;;;;;-7.27;100.00;101500.22;4998718;28;20053;-66
2022/01/24 03:52:46;;;;;;;41.08;13.50;;;;;;;-7.25;100.00;101495.84;4984335;28;20041;-66
2022/01/24 03:55:12;;;;;;;44.30;17.00;;;;;;;-7.24;100.00;101499.34;4998710;28;20177;-65
2022/01/24 03:57:39;;;;;;;47.70;16.67;;;;;;;-7.24;100.00;101502.84;4997525;28;20053;-66
2022/01/24 04:00:07;;;;;;;42.53;15.48;;;;;;;-7.23;100.00;101507.25;4997572;28;20061;-66
2022/01/24 04:02:39;;;;;;;41.42;15.70;;;;;;;-7.19;100.00;101501.13;4998111;28;20401;-65
2022/01/24 04:05:05;;;;;;;39.67;16.02;;;;;;;-7.19;100.00;101503.75;4980608;28;20140;-66
2022/01/24 04:07:32;;;;;;;48.17;15.88;;;;;;;-7.23;100.00;101499.38;4996771;28;20391;-66
2022/01/24 04:10:04;;;;;;;51.88;17.92;;;;;;;-7.22;100.00;101503.75;4996398;28;20125;-66
2022/01/24 04:12:30;;;;;;;42.65;15.32;;;;;;;-7.20;100.00;101504.63;4997659;28;20069;-65
2022/01/24 04:15:07;;;;;;;40.55;14.75;;;;;;;-7.24;100.00;101499.34;4980345;28;20128;-65
2022/01/24 04:17:44;;;;;;;46.30;17.02;;;;;;;-7.26;100.00;101504.59;4981766;28;20064;-66
2022/01/24 04:22:57;;;;;;;41.88;15.45;;;;;;;-7.24;100.00;101505.47;4996922;28;20045;-67
2022/01/24 04:25:24;;;;;;;35.78;13.70;;;;;;;-7.26;100.00;101507.22;4981184;28;20045;-66
2022/01/24 04:27:51;;;;;;;57.65;19.27;;;;;;;-7.26;100.00;101519.50;4980304;28;20049;-66
2022/01/24 04:30:17;;;;;;;49.83;17.92;;;;;;;-7.28;100.00;101515.13;4996144;28;20137;-65
2022/01/24 04:32:43;;;;;;;58.83;17.58;;;;;;;-7.26;100.00;101520.38;4979989;28;20050;-65
2022/01/24 04:35:09;;;;;;;46.17;16.20;;;;;;;-7.25;100.00;101519.50;4981122;28;20149;-66
2022/01/24 04:37:35;;;;;;;48.13;18.55;;;;;;;-7.23;100.00;101523.00;5013931;28;20127;-66
2022/01/24 04:40:01;;;;;;;49.92;18.52;;;;;;;-7.24;100.00;101515.97;4980510;28;20132;-66
2022/01/24 04:42:40;;;;;;;51.00;17.08;;;;;;;-7.26;100.00;101522.13;4980429;28;20053;-65
2022/01/24 04:45:28;;;;;;;49.58;19.15;;;;;;;-7.26;100.00;101517.75;4980471;28;20046;-66
2022/01/24 04:51:00;;;;;;;48.08;17.90;;;;;;;-7.27;100.00;101516.00;4982887;28;20144;-66
2022/01/24 04:56:04;;;;;;;49.80;19.45;;;;;;;-7.17;100.00;101509.88;4997300;28;20052;-66
2022/01/24 04:58:30;;;;;;;49.20;20.58;;;;;;;-7.19;100.00;101518.66;4979688;28;20053;-65
2022/01/24 05:00:56;;;;;;;54.55;21.85;;;;;;;-7.24;100.00;101520.38;4976515;28;20046;-66
2022/01/24 05:03:22;;;;;;;54.22;21.27;;;;;;;-7.19;100.00;101523.91;4968713;28;20148;-66
2022/01/24 05:05:49;;;;;;;46.78;19.85;;;;;;;-7.19;99.92;101514.28;5002387;28;20386;-66
2022/01/24 05:08:16;;;;;;;48.13;19.67;;;;;;;-7.18;100.00;101520.41;4987623;28;20094;-66
2022/01/24 05:11:04;;;;;;;64.72;24.65;;;;;;;-7.24;100.00;101510.72;4995372;28;20409;-66
2022/01/24 05:24:30;;;;;;;66.40;25.25;;;;;;;-7.04;99.57;101530.09;4971110;28;20145;-67
2022/01/24 05:26:56;;;;;;;64.28;24.33;;;;;;;-7.04;99.58;101524.84;4987165;28;20405;-66
2022/01/24 05:29:22;;;;;;;69.15;24.20;;;;;;;-6.97;99.56;101530.13;4967813;28;20104;-68
2022/01/24 05:31:48;;;;;;;56.20;22.00;;;;;;;-7.22;99.41;101524.75;4974686;28;20070;-66
2022/01/24 05:34:14;;;;;;;51.90;19.10;;;;;;;-7.28;99.75;101529.97;4970381;28;20046;-66
2022/01/24 05:36:40;;;;;;;54.95;21.10;;;;;;;-7.34;100.00;101527.34;4978024;28;20096;-65
2022/01/24 05:39:06;;;;;;;51.65;18.38;;;;;;;-7.31;100.00;101535.25;4988535;28;20477;-71
2022/01/24 05:41:32;;;;;;;59.60;22.48;;;;;;;-7.40;100.00;101540.44;5006616;28;20125;-67
2022/01/24 05:43:58;;;;;;;48.85;19.02;;;;;;;-7.62;100.00;101510.56;5004945;28;20474;-67
2022/01/24 05:46:24;;;;;;;46.92;17.10;;;;;;;-7.53;100.00;101539.50;4980975;28;20116;-67
2022/01/24 05:48:52;;;;;;;43.50;16.80;;;;;;;-7.58;100.00;101526.31;4967780;28;20038;-67
2022/01/24 05:51:20;;;;;;;46.95;16.10;;;;;;;-7.49;100.00;101532.50;4967512;28;20554;-68
2022/01/24 05:53:46;;;;;;;51.15;19.20;;;;;;;-7.47;100.00;101536.03;4967992;28;20042;-67
2022/01/24 05:56:12;;;;;;;42.90;16.98;;;;;;;-7.44;100.00;101534.28;4996609;28;20057;-67
2022/01/24 05:58:38;;;;;;;48.58;17.55;;;;;;;-7.23;99.96;101549.28;4980170;28;20054;-66
2022/01/24 06:01:04;;;;;;;49.97;16.85;;;;;;;-7.23;99.34;101538.78;4982559;28;20144;-65
2022/01/24 06:03:31;;;;;;;46.28;17.08;;;;;;;-7.15;98.61;101537.06;4971038;28;20525;-68
2022/01/24 06:05:57;;;;;;;53.67;18.20;;;;;;;-7.09;98.40;101542.34;4976299;28;20462;-66
2022/01/24 06:08:23;;;;;;;44.00;16.48;;;;;;;-7.01;97.98;101536.25;4962353;28;20178;-65
2022/01/24 06:10:49;;;;;;;44.70;16.40;;;;;;;-7.00;97.47;101535.38;4965443;28;20140;-65
2022/01/24 06:13:16;;;;;;;48.83;18.60;;;;;;;-6.98;97.06;101549.38;4980148;28;20042;-65
2022/01/24 06:15:43;;;;;;;49.40;17.70;;;;;;;-6.91;96.86;101540.63;4963501;28;20429;-65
2022/01/24 06:18:09;;;;;;;47.10;16.02;;;;;;;-6.89;96.29;101538.91;4980157;28;20153;-65
2022/01/24 06:20:35;;;;;;;46.00;15.52;;;;;;;-6.87;96.54;101532.78;4984035;28;20505;-66
2022/01/24 06:23:01;;;;;;;47.60;18.10;;;;;;;-6.86;95.73;101529.28;4966564;28;20057;-65
2022/01/24 06:25:29;;;;;;;48.55;18.58;;;;;;;-6.81;96.08;101537.16;4965255;28;20053;-69
2022/01/24 06:27:55;;;;;;;48.22;17.73;;;;;;;-6.79;95.76;101538.06;5002463;28;20053;-70
2022/01/24 06:30:21;;;;;;;54.30;17.85;;;;;;;-6.89;96.14;101502.09;5004141;28;20404;-68
2022/01/24 06:32:47;;;;;;;52.58;18.92;;;;;;;-6.77;95.88;101523.16;5016497;28;20137;-66
2022/01/24 06:35:14;;;;;;;51.15;18.50;;;;;;;-6.68;95.73;101517.94;4976752;28;20086;-65
2022/01/24 06:37:40;;;;;;;45.40;16.33;;;;;;;-6.62;95.07;101533.72;5017340;28;20131;-66
2022/01/24 06:40:08;;;;;;;49.53;17.20;;;;;;;-6.64;95.17;101534.59;5005098;28;20495;-67
2022/01/24 06:42:34;;;;;;;43.28;15.30;;;;;;;-6.67;94.71;101522.31;4991348;28;20076;-66
2022/01/24 06:45:00;;;;;;;40.10;15.57;;;;;;;-6.69;94.28;101516.19;4978697;28;20151;-66
2022/01/24 06:47:26;;;;;;;43.38;16.55;;;;;;;-6.65;94.49;101523.19;4978941;28;20052;-67
2022/01/24 06:49:52;;;;;;;41.17;15.57;;;;;;;-6.67;94.75;101517.03;4994313;28;20037;-66
2022/01/24 06:52:18;;;;;;;47.25;17.38;;;;;;;-6.68;94.32;101517.94;5004633;28;20084;-66
2022/01/24 06:54:44;;;;;;;45.50;16.83;;;;;;;-6.64;94.25;101524.94;4977796;28;20045;-66
2022/01/24 06:57:12;;;;;;;46.33;16.67;;;;;;;-6.63;94.52;101526.69;4995195;28;20533;-66
2022/01/24 06:59:43;;;;;;;43.75;17.08;;;;;;;-6.61;94.89;101530.22;4984856;28;20042;-66
2022/01/24 07:02:09;;;;;;;43.53;17.58;;;;;;;-6.58;94.14;101519.72;4987760;28;20098;-66
2022/01/24 07:04:39;;;;;;;45.83;14.77;;;;;;;-6.56;93.66;101523.19;4981730;28;20555;-66
2022/01/24 07:07:05;;;;;;;46.40;16.77;;;;;;;-6.52;93.96;101528.47;4971872;28;20459;-67
2022/01/24 07:09:31;;;;;;;42.55;15.82;;;;;;;-6.53;93.65;101537.25;4992987;28;20049;-66
2022/01/24 07:11:57;;;;;;;40.83;15.23;;;;;;;-6.49;93.43;101531.13;5005727;28;20425;-66
2022/01/24 07:14:23;;;;;;;43.97;16.42;;;;;;;-6.45;93.61;101532.88;5014981;28;20041;-66
2022/01/24 07:19:21;;;;;;;48.33;17.15;;;;;;;-6.40;93.67;101529.38;5025906;28;20508;-66
2022/01/24 07:21:47;;;;;;;44.88;17.70;;;;;;;-6.48;92.77;101503.91;4996083;28;20072;-66
2022/01/24 07:24:13;;;;;;;45.60;17.45;;;;;;;-6.28;93.39;101532.91;4981365;28;20099;-66
2022/01/24 07:26:39;;;;;;;42.10;16.27;;;;;;;-6.31;93.30;101528.50;4975838;28;20343;-66
2022/01/24 07:29:05;;;;;;;48.60;17.58;;;;;;;-6.28;93.31;101515.34;4992059;28;20050;-66
2022/01/24 07:31:31;;;;;;;48.40;17.05;;;;;;;-6.23;93.12;101521.47;4980493;28;20081;-66
2022/01/24 07:33:57;;;;;;;50.88;18.10;;;;;;;-6.18;92.83;101525.00;4996810;28;20101;-70
2022/01/24 07:36:26;;;;;;;50.05;18.85;;;;;;;-6.28;92.97;101496.94;4971833;28;20520;-66
2022/01/24 07:38:52;;;;;;;47.75;17.90;;;;;;;-6.14;91.93;101532.03;4958992;28;20046;-66
2022/01/24 07:41:25;;;;;;;52.10;17.70;;;;;;;-6.16;92.34;101531.13;4977671;28;20046;-66
2022/01/24 07:43:50;;;;;;;49.53;17.88;;;;;;;-6.10;92.82;101533.78;4992780;28;20053;-69
2022/01/24 07:46:17;;;;;;;53.60;18.75;;;;;;;-6.10;92.47;101523.25;4969549;28;20053;-68
2022/01/24 07:48:43;;;;;;;48.53;17.15;;;;;;;-6.00;92.81;101531.13;4996595;28;20460;-68
2022/01/24 07:51:09;;;;;;;59.58;20.15;;;;;;;-6.01;92.40;101517.09;4981794;28;20042;-68
2022/01/24 07:53:35;;;;;;;57.72;19.50;;;;;;;-5.97;92.54;101521.47;5010821;28;20103;-66
2022/01/24 07:56:01;;;;;;;48.83;18.55;;;;;;;-5.89;92.02;101527.56;4987741;28;20053;-67
2022/01/24 07:58:28;;;;;;;63.35;20.30;;;;;;;-5.95;92.74;101510.97;5005774;28;20231;-68
2022/01/24 08:00:55;;;;;;;59.50;18.58;;;;;;;-5.96;93.19;101503.91;4971194;28;20132;-66
2022/01/24 08:03:21;;;;;;;54.90;17.88;;;;;;;-5.77;92.27;101526.69;4977401;28;20041;-67
2022/01/24 08:05:47;;;;;;;58.60;21.17;;;;;;;-5.81;92.52;101524.94;4977001;28;20155;-66
2022/01/24 08:08:13;;;;;;;54.35;20.25;;;;;;;-5.74;92.38;101531.97;5001695;28;20041;-67
2022/01/24 08:10:39;;;;;;;60.42;21.23;;;;;;;-5.70;92.31;101517.91;4993502;28;20219;-66
2022/01/24 08:13:05;;;;;;;53.60;19.58;;;;;;;-5.67;92.62;101517.00;4984199;28;20053;-66
2022/01/24 08:15:32;;;;;;;59.83;21.27;;;;;;;-5.73;92.39;101503.88;4999195;28;20512;-66
2022/01/24 08:17:58;;;;;;;65.28;22.08;;;;;;;-5.69;91.30;101511.75;4992350;28;20073;-67
2022/01/24 08:20:24;;;;;;;60.28;23.00;;;;;;;-5.65;91.38;101508.22;5015160;28;20077;-66
2022/01/24 08:22:51;;;;;;;65.20;26.05;;;;;;;-5.83;91.78;101517.03;4999485;28;20041;-66
2022/01/24 08:25:17;;;;;;;63.92;25.50;;;;;;;-5.93;93.05;101520.59;4994864;28;20053;-66
2022/01/24 08:27:43;;;;;;;68.53;27.05;;;;;;;-5.98;93.68;101530.25;5006317;28;20073;-66
2022/01/24 08:30:15;;;;;;;66.50;25.92;;;;;;;-6.13;94.21;101523.25;5021342;28;20058;-67
2022/01/24 08:32:41;;;;;;;69.22;26.63;;;;;;;-6.08;94.47;101525.88;4995245;28;20041;-67
2022/01/24 08:35:08;;;;;;;71.18;29.08;;;;;;;-6.14;94.68;101520.63;4994925;28;20168;-67
2022/01/24 08:37:36;;;;;;;63.88;25.50;;;;;;;-6.03;94.12;101518.88;5003894;28;20046;-66
2022/01/24 08:40:04;;;;;;;65.40;25.58;;;;;;;-6.18;94.25;101509.22;4980718;28;20430;-66
2022/01/24 08:42:43;;;;;;;58.97;22.13;;;;;;;-6.10;93.64;101517.97;4984396;28;20052;-66
2022/01/24 08:47:54;;;;;;;51.30;20.42;;;;;;;-6.07;93.20;101518.00;5006982;28;20362;-66
2022/01/24 08:50:25;;;;;;;53.20;22.27;;;;;;;-6.01;93.17;101516.22;4983606;28;20073;-74
2022/01/24 08:52:51;;;;;;;;;;;;;;;-6.03;94.13;101517.97;4973032;28;20078;-68
2022/01/24 08:55:17;;;;;;;62.22;24.63;;;;;;;-6.20;93.66;101500.44;5006478;28;20427;-66
2022/01/24 08:57:43;;;;;;;57.15;22.25;;;;;;;-6.17;94.42;101515.34;4975103;28;20137;-65
2022/01/24 09:00:10;;;;;;;58.45;23.73;;;;;;;-6.15;94.60;101511.81;4976599;28;20046;-67
2022/01/24 09:02:36;;;;;;;61.75;24.33;;;;;;;-6.27;94.46;101509.19;4969791;28;20525;-66
2022/01/24 09:05:03;;;;;;;64.03;25.27;;;;;;;-6.19;94.16;101510.06;4969160;28;20037;-67
2022/01/24 09:07:30;;;;;;;66.63;27.75;;;;;;;-6.26;94.10;101503.06;4974956;28;20132;-67
2022/01/24 09:09:57;;;;;;;62.40;25.33;;;;;;;-6.23;94.12;101499.56;4987336;28;20125;-66
2022/01/24 09:12:23;;;;;;;70.63;24.27;;;;;;;-6.19;93.70;101502.19;4978129;28;20527;-69
2022/01/24 09:14:50;;;;;;;66.88;25.40;;;;;;;-6.16;94.30;101504.81;4992431;28;20101;-67
2022/01/24 09:17:17;;;;;;;76.43;27.02;;;;;;;-5.99;93.93;101491.66;4986844;28;20117;-69
2022/01/24 09:19:43;;;;;;;79.45;29.60;;;;;;;-6.17;93.20;101489.03;4983427;28;20062;-68
2022/01/24 09:22:12;;;;;;;71.65;28.15;;;;;;;-6.18;94.05;101493.44;4955215;28;20042;-69
2022/01/24 09:24:38;;;;;;;83.68;30.98;;;;;;;-6.29;94.21;101483.75;5015475;28;20516;-70
2022/01/24 09:27:04;;;;;;;86.13;29.65;;;;;;;-6.19;94.06;101480.25;4977368;28;20140;-67
2022/01/24 09:29:30;;;;;;;78.28;31.40;;;;;;;-6.18;93.64;101482.00;4996922;28;20053;-68
2022/01/24 09:31:56;;;;;;;64.03;27.45;;;;;;;-6.15;92.92;101474.97;4970735;28;20050;-68
2022/01/24 09:34:23;;;;;;;69.05;26.50;;;;;;;-5.95;92.73;101474.97;4970221;28;20493;-71
2022/01/24 09:36:49;;;;;;;62.85;26.75;;;;;;;-6.02;92.13;101482.88;4969730;28;20045;-67
2022/01/24 09:39:16;;;;;;;70.32;26.48;;;;;;;-6.15;93.69;101477.59;5011123;28;20053;-67
2022/01/24 09:41:42;;;;;;;66.75;27.17;;;;;;;-6.16;92.91;101486.38;4978647;28;20042;-67
2022/01/24 09:44:08;;;;;;;68.70;25.45;;;;;;;-6.07;93.40;101481.13;4983487;28;20037;-68
2022/01/24 09:46:36;;;;;;;70.07;28.13;;;;;;;-6.20;93.62;101479.38;4994943;28;20067;-66
2022/01/24 09:49:04;;;;;;;64.38;26.50;;;;;;;-6.28;93.24;101464.47;5038164;28;20068;-66
2022/01/24 09:51:30;;;;;;;65.75;25.55;;;;;;;-6.29;94.04;101468.84;5028594;28;20415;-66
2022/01/24 09:53:56;;;;;;;71.97;26.13;;;;;;;-6.22;93.84;101480.25;5015268;28;20046;-66
2022/01/24 09:56:22;;;;;;;69.55;26.85;;;;;;;-6.30;93.88;101472.34;5009899;28;20053;-67
2022/01/24 09:58:48;;;;;;;65.22;26.52;;;;;;;-6.28;94.05;101470.63;4994077;28;20473;-67
2022/01/24 10:01:15;;;;;;;63.60;25.15;;;;;;;-6.23;93.72;101471.47;4994310;28;20141;-67
2022/01/24 10:04:07;;;;;;;55.92;23.13;;;;;;;-6.24;93.89;101461.84;4981457;28;20457;-67
2022/01/24 10:06:58;;;;;;;65.35;23.40;;;;;;;-6.07;93.96;101452.19;4994081;28;20060;-67
2022/01/24 10:09:53;;;;;;;64.55;24.38;;;;;;;-6.15;92.59;101459.19;5023759;28;20160;-68
2022/01/24 10:17:39;;;;;;;59.45;23.00;;;;;;;-6.20;92.67;101437.28;4992163;28;20468;-67
2022/01/24 10:20:29;;;;;;;55.03;22.73;;;;;;;-6.11;92.04;101437.25;4998822;28;20051;-67
2022/01/24 10:23:26;;;;;;;60.78;23.17;;;;;;;-6.15;92.49;101443.38;4992682;28;20531;-67
2022/01/24 10:26:02;;;;;;;61.35;22.20;;;;;;;-6.23;92.43;101416.22;4992823;28;20042;-67
2022/01/24 10:28:31;;;;;;;55.42;22.40;;;;;;;-6.08;92.47;101445.13;5007138;28;20385;-67
2022/01/24 10:31:07;;;;;;;64.85;23.40;;;;;;;-6.02;92.37;101446.91;5008979;28;20045;-67
2022/01/24 10:33:50;;;;;;;58.00;22.92;;;;;;;-6.07;91.87;101438.09;5014296;28;20103;-66
2022/01/24 10:36:32;;;;;;;52.72;21.50;;;;;;;-6.07;91.32;101439.03;4997300;28;20501;-67
2022/01/24 10:39:31;;;;;;;56.63;18.48;;;;;;;-5.86;91.58;101434.53;4966440;28;20412;-66
2022/01/24 10:44:49;;;;;;;50.45;20.48;;;;;;;-6.04;89.98;101437.25;5007311;28;20045;-68
2022/01/24 10:47:28;;;;;;;52.65;21.30;;;;;;;-6.05;90.37;101417.06;5009474;28;20044;-67
2022/01/24 10:49:55;;;;;;;48.15;20.95;;;;;;;-6.09;90.72;101430.22;4995154;28;20069;-67
2022/01/24 10:52:29;;;;;;;54.15;20.27;;;;;;;-6.07;91.25;101417.97;4990444;28;20086;-67
2022/01/24 10:55:14;;;;;;;54.55;22.02;;;;;;;-6.03;91.36;101428.44;4992074;28;20103;-68
2022/01/24 10:57:41;;;;;;;54.13;20.05;;;;;;;-6.13;90.78;101417.09;4988598;28;20373;-67
2022/01/24 11:00:31;;;;;;;48.63;18.48;;;;;;;-6.10;91.37;101417.97;5010687;28;20428;-68
2022/01/24 11:03:02;;;;;;;48.03;18.67;;;;;;;-6.10;90.98;101402.16;4957685;28;20052;-69
2022/01/24 11:05:28;;;;;;;49.03;19.25;;;;;;;-6.05;90.04;101409.16;4992121;28;20528;-70
2022/01/24 11:07:57;;;;;;;48.00;17.88;;;;;;;-6.25;89.96;101381.16;4985555;28;20103;-68
2022/01/24 11:10:34;;;;;;;46.25;18.23;;;;;;;-6.01;89.03;101393.34;5001306;28;20044;-68
2022/01/24 11:13:03;;;;;;;46.42;17.02;;;;;;;-5.88;88.61;101408.22;5017881;28;20524;-68
2022/01/24 11:15:29;;;;;;;50.65;20.15;;;;;;;-6.04;88.89;101395.13;5001500;28;20159;-68
2022/01/24 11:17:58;;;;;;;51.17;19.95;;;;;;;-6.17;88.78;101392.53;4997043;28;20509;-68
2022/01/24 11:20:30;;;;;;;49.75;19.30;;;;;;;-6.13;88.31;101403.94;5011290;28;20041;-67
2022/01/24 11:22:58;;;;;;;48.17;18.13;;;;;;;-6.11;88.85;101384.59;5011003;28;20077;-70
2022/01/24 11:25:26;;;;;;;48.33;19.92;;;;;;;-6.02;88.88;101393.38;5012606;28;20057;-68
2022/01/24 11:27:52;;;;;;;51.60;20.15;;;;;;;-6.03;89.25;101396.88;5008351;28;20508;-68
2022/01/24 11:30:24;;;;;;;48.28;20.50;;;;;;;-6.08;89.33;101387.22;5010645;28;20048;-68
2022/01/24 11:33:13;;;;;;;49.72;19.55;;;;;;;-5.98;89.18;101401.25;4970724;28;20085;-68
2022/01/24 11:35:50;;;;;;;50.65;18.83;;;;;;;-5.98;89.13;101397.75;4983646;28;20084;-68
2022/01/24 11:38:35;;;;;;;50.25;20.20;;;;;;;-6.00;88.46;101396.84;4990796;28;20092;-68
2022/01/24 11:41:22;;;;;;;48.58;18.67;;;;;;;-5.90;88.68;101388.91;4992567;28;20153;-68
2022/01/24 11:43:51;;;;;;;41.83;17.08;;;;;;;-5.94;88.81;101386.31;4984124;28;20114;-69
2022/01/24 11:46:30;;;;;;;48.97;20.50;;;;;;;-6.13;88.42;101375.84;4994553;28;20412;-68
2022/01/24 11:49:12;;;;;;;48.63;19.30;;;;;;;-6.16;88.54;101370.59;4995323;28;20064;-68
2022/01/24 11:51:39;;;;;;;49.03;20.75;;;;;;;-6.20;88.41;101378.50;4976969;28;20053;-68
2022/01/24 11:54:44;;;;;;;42.42;17.15;;;;;;;-6.26;88.40;101374.09;4992145;28;20050;-69
2022/01/24 11:57:26;;;;;;;45.75;17.52;;;;;;;-6.18;88.85;101360.94;4993678;28;20855;-68
2022/01/24 12:00:12;;;;;;;57.42;19.52;;;;;;;-6.24;88.58;101348.69;4982792;28;20046;-68
2022/01/24 12:02:46;;;;;;;44.50;18.40;;;;;;;-6.16;88.81;101360.06;4990201;28;20042;-68
2022/01/24 12:05:26;;;;;;;47.55;17.30;;;;;;;-6.01;88.90;101363.53;4991366;28;20050;-68
2022/01/24 12:07:58;;;;;;;43.65;16.77;;;;;;;-5.92;88.06;101352.97;5018258;28;20507;-68
2022/01/24 12:10:25;;;;;;;46.78;17.38;;;;;;;-5.90;88.15;101359.06;5010657;28;20057;-68
2022/01/24 12:13:15;;;;;;;45.03;16.65;;;;;;;-5.85;87.38;101346.75;4978595;28;20042;-68
2022/01/24 12:15:43;;;;;;;43.63;16.60;;;;;;;-5.79;87.67;101344.09;4994766;28;20042;-70
2022/01/24 12:18:19;;;;;;;45.67;16.33;;;;;;;-5.93;86.12;101324.88;5021912;28;20080;-67
2022/01/24 12:20:48;;;;;;;45.75;16.05;;;;;;;-5.84;85.54;101346.75;4996898;28;20593;-67
2022/01/24 12:23:16;;;;;;;46.03;16.40;;;;;;;-5.83;86.19;101343.22;5006093;28;20119;-67
2022/01/24 12:25:54;;;;;;;42.22;17.17;;;;;;;-5.90;85.90;101340.63;5030314;28;20408;-67
2022/01/24 12:28:25;;;;;;;44.95;16.48;;;;;;;-5.86;86.28;101342.38;4997040;28;20346;-67
2022/01/24 12:30:59;;;;;;;39.97;14.93;;;;;;;-5.80;86.02;101326.56;4981614;28;20483;-67
2022/01/24 12:33:36;;;;;;;46.35;17.40;;;;;;;-5.77;86.98;101331.81;4985361;28;20042;-67
2022/01/24 12:36:14;;;;;;;46.83;17.95;;;;;;;-5.81;87.79;101327.44;4989322;28;20041;-67
2022/01/24 12:38:53;;;;;;;41.13;15.00;;;;;;;-5.79;87.55;101338.84;4996248;28;20492;-67
2022/01/24 12:41:24;;;;;;;43.47;17.58;;;;;;;-5.81;86.47;101345.88;5012967;28;20128;-68
2022/01/24 12:46:30;;;;;;;42.95;17.00;;;;;;;-5.77;86.24;101330.94;5005050;28;20048;-68
2022/01/24 12:48:58;;;;;;;43.65;18.00;;;;;;;-6.19;87.45;101327.59;4978839;28;20053;-67
2022/01/24 12:51:27;;;;;;;44.17;16.73;;;;;;;-6.19;87.83;101349.53;4991927;28;20046;-67
2022/01/24 12:53:53;;;;;;;46.40;18.50;;;;;;;-6.39;88.62;101346.97;5004078;28;20038;-67
2022/01/24 12:56:25;;;;;;;44.55;17.85;;;;;;;-6.38;89.34;101343.44;5001117;28;20045;-67
2022/01/24 12:58:51;;;;;;;46.50;18.10;;;;;;;-6.45;89.28;101340.81;5004598;28;20072;-67
2022/01/24 13:01:19;;;;;;;44.08;18.10;;;;;;;-6.41;89.69;101347.84;4996135;28;20049;-68
2022/01/24 13:03:49;;;;;;;55.15;19.95;;;;;;;-6.50;90.17;101342.59;4990509;28;20081;-67